CWLY

Lytton Airport

Lytton, Canada

CWLY 261600Z AUTO 16004KT 9SM SCT047 11/09 A3020 RMK SLP230

Observed Flight Rules
Sep-26 @ 16:00 UTC (25 minutes ago)
 
Visual Flight Rules
Wind Visibility Clouds
160° at 4 knots 9 miles
  • Scattered at 4,700' AGL
Temperatures Readings
Current 11°C / 52°F
Dewpoint 9°C / 48°F
Humidity 88%
Altimeter 30.2" Hg
Pressure 1023 hPa
Elevation 229
Observed Flight Rules
Sep-26 @ 16:00 UTC
(25 minutes ago)
 
VFR
Wind Visibility
160° at 4 knots 9 miles
Clouds
  • Scattered at 4,700' AGL
Temperature Dewpoint
11°C / 52°F 9°C / 48°F
Humidity Altimeter Pressure
88% 30.2" Hg 1023 hPa